Time;durP1;ratioP1;P1;durP2;ratioP2;P2;SDS_P1;SDS_P2;PMS_P1;PMS_P2;Temp;Humidity;BMP_temperature;BMP_pressure;BME280_temperature;BME280_humidity;BME280_pressure;Samples;Min_cycle;Max_cycle;Signal;HPM_P1;HPM_P2
2022/10/08 00:01:09;;;;;;;4.97;3.00;;;;;;;4.57;100.00;100924.59;4972107;28;20069;-79
2022/10/08 00:03:39;;;;;;;5.53;2.80;;;;;;;4.43;100.00;100922.72;4974077;28;20053;-77
2022/10/08 00:06:14;;;;;;;5.57;2.83;;;;;;;4.37;100.00;100919.16;4957373;28;20046;-79
2022/10/08 00:08:46;;;;;;;4.73;2.80;;;;;;;4.38;100.00;100919.22;4989031;28;20038;-78
2022/10/08 00:11:15;;;;;;;5.70;3.00;;;;;;;4.34;100.00;100914.81;4963943;28;20081;-78
2022/10/08 00:13:44;;;;;;;5.10;3.67;;;;;;;4.36;100.00;100913.06;4971666;28;20046;-78
2022/10/08 00:16:33;;;;;;;7.27;2.50;;;;;;;4.31;100.00;100911.28;4986427;28;20069;-78
2022/10/08 00:19:02;;;;;;;6.30;3.10;;;;;;;4.35;100.00;100908.69;4984435;28;20054;-78
2022/10/08 00:21:35;;;;;;;4.50;3.07;;;;;;;4.32;100.00;100902.59;4968322;28;20038;-78
2022/10/08 00:24:04;;;;;;;6.97;2.70;;;;;;;4.30;100.00;100902.56;4982049;28;20706;-77
2022/10/08 00:26:32;;;;;;;4.77;3.17;;;;;;;4.36;100.00;100902.59;4968173;28;20101;-78
2022/10/08 00:29:02;;;;;;;5.13;3.20;;;;;;;4.45;100.00;100897.44;4966659;28;20124;-77
2022/10/08 00:31:31;;;;;;;6.80;3.60;;;;;;;4.39;100.00;100900.03;4984659;28;20041;-78
2022/10/08 00:33:59;;;;;;;8.57;3.17;;;;;;;4.39;100.00;100888.69;4986266;28;20046;-78
2022/10/08 00:36:30;;;;;;;8.93;3.60;;;;;;;4.41;100.00;100884.34;4951838;28;22026;-77
2022/10/08 00:39:05;;;;;;;7.60;3.83;;;;;;;4.32;100.00;100886.88;4984598;28;20050;-77
2022/10/08 00:41:36;;;;;;;6.33;3.50;;;;;;;4.31;100.00;100883.41;4953597;28;20039;-79
2022/10/08 00:44:41;;;;;;;5.77;3.77;;;;;;;4.18;100.00;100881.53;4950071;28;20045;-77
2022/10/08 00:47:15;;;;;;;7.45;3.53;;;;;;;4.19;100.00;100880.66;4984852;28;20057;-77
2022/10/08 00:49:42;;;;;;;7.35;3.60;;;;;;;4.27;100.00;100881.59;4987912;28;20042;-77
2022/10/08 00:52:09;;;;;;;5.23;3.60;;;;;;;4.26;100.00;100872.00;4969948;28;20034;-77
2022/10/08 00:54:36;;;;;;;6.83;3.47;;;;;;;4.24;100.00;100872.00;4968309;28;20064;-78
2022/10/08 00:57:05;;;;;;;6.77;3.30;;;;;;;4.24;100.00;100872.00;4973230;28;21607;-78
2022/10/08 00:59:32;;;;;;;8.13;3.43;;;;;;;4.25;100.00;100867.66;4961105;28;20137;-78
2022/10/08 01:01:59;;;;;;;6.40;3.60;;;;;;;4.27;100.00;100860.69;4976505;28;20034;-79
2022/10/08 01:04:26;;;;;;;5.87;3.30;;;;;;;4.32;100.00;100853.75;4980802;28;20057;-78
2022/10/08 01:07:01;;;;;;;5.23;3.77;;;;;;;4.25;100.00;100859.78;4959424;28;20752;-78
2022/10/08 01:09:54;;;;;;;7.10;3.60;;;;;;;4.33;100.00;100854.63;4976497;28;20046;-79
2022/10/08 01:12:34;;;;;;;7.73;3.90;;;;;;;4.35;100.00;100852.91;4963034;28;20045;-79
2022/10/08 01:15:08;;;;;;;4.50;3.50;;;;;;;4.31;100.00;100845.91;4956197;28;20104;-79
2022/10/08 01:17:54;;;;;;;;;;;;;;;4.36;100.00;100846.81;4956074;28;20054;-79
2022/10/08 01:20:37;;;;;;;4.63;3.23;;;;;;;4.28;100.00;100840.63;4976598;28;19968;-79
2022/10/08 01:23:19;;;;;;;6.27;3.83;;;;;;;4.17;100.00;100845.78;4976299;28;20595;-79
2022/10/08 01:26:07;;;;;;;7.73;3.70;;;;;;;4.18;100.00;100840.56;4971637;28;20050;-78
2022/10/08 01:28:56;;;;;;;6.87;3.63;;;;;;;4.16;100.00;100837.06;4971519;28;20038;-78
2022/10/08 01:31:28;;;;;;;16.03;5.30;;;;;;;4.17;100.00;100836.19;4958009;28;20492;-78
2022/10/08 01:34:36;;;;;;;5.60;3.47;;;;;;;4.24;100.00;100839.75;4979248;28;20062;-79
2022/10/08 01:37:05;;;;;;;6.47;3.40;;;;;;;4.16;100.00;100830.97;4929566;28;20089;-78
2022/10/08 01:39:35;;;;;;;5.73;3.67;;;;;;;4.14;100.00;100833.56;4959518;28;20057;-79
2022/10/08 01:42:05;;;;;;;6.10;4.13;;;;;;;4.16;100.00;100834.44;4969057;28;20046;-78
2022/10/08 01:44:38;;;;;;;8.00;3.83;;;;;;;4.18;100.00;100837.94;4958410;28;20105;-79
2022/10/08 01:47:10;;;;;;;6.43;3.47;;;;;;;4.16;100.00;100836.19;4973725;28;20661;-79
2022/10/08 01:49:44;;;;;;;9.13;3.90;;;;;;;4.15;100.00;100831.81;4959521;28;20081;-79
2022/10/08 01:52:16;;;;;;;8.47;4.40;;;;;;;4.18;100.00;100826.59;4960102;28;20160;-79
2022/10/08 01:54:47;;;;;;;7.67;4.43;;;;;;;4.18;100.00;100824.88;4971815;28;20128;-79
2022/10/08 01:57:13;;;;;;;7.27;4.77;;;;;;;4.20;100.00;100831.00;4958717;28;20050;-79
2022/10/08 01:59:45;;;;;;;5.10;4.00;;;;;;;4.23;100.00;100830.16;4963042;28;20053;-79
2022/10/08 02:02:15;;;;;;;7.63;4.30;;;;;;;4.27;100.00;100829.28;4978498;28;20496;-78
2022/10/08 02:04:42;;;;;;;5.60;4.40;;;;;;;4.28;100.00;100827.56;4974827;28;20046;-79
2022/10/08 02:07:17;;;;;;;6.40;4.67;;;;;;;4.31;100.00;100825.84;4944036;28;20039;-79
2022/10/08 02:09:47;;;;;;;7.73;4.40;;;;;;;4.23;100.00;100836.25;4962947;28;20050;-79
2022/10/08 02:12:13;;;;;;;6.30;4.03;;;;;;;4.25;100.00;100836.25;4965119;28;20069;-79
2022/10/08 02:14:43;;;;;;;9.07;4.60;;;;;;;4.28;100.00;100836.28;4968151;28;20042;-80
2022/10/08 02:17:24;;;;;;;5.03;3.80;;;;;;;4.26;100.00;100832.78;4984867;28;20042;-80
2022/10/08 02:20:12;;;;;;;7.33;4.23;;;;;;;4.28;100.00;100825.81;4984499;28;20085;-80
2022/10/08 02:23:07;;;;;;;5.53;3.90;;;;;;;4.34;100.00;100830.22;4949936;28;20054;-80
2022/10/08 02:25:44;;;;;;;;;;;;;;;4.32;100.00;100809.28;4965555;28;20054;-79
2022/10/08 02:28:18;;;;;;;6.13;4.00;;;;;;;4.32;100.00;100806.69;4955286;28;19976;-80
2022/10/08 02:30:51;;;;;;;12.63;4.00;;;;;;;4.29;100.00;100816.22;4947459;28;20043;-80
2022/10/08 02:33:25;;;;;;;9.10;4.10;;;;;;;4.17;100.00;100830.09;4986539;28;20042;-78
2022/10/08 02:35:55;;;;;;;6.57;3.95;;;;;;;4.23;100.00;100833.63;4973598;28;20049;-79
2022/10/08 02:38:27;;;;;;;9.17;4.13;;;;;;;4.26;100.00;100838.00;4973870;28;20448;-79
2022/10/08 02:40:57;;;;;;;7.23;4.13;;;;;;;4.26;100.00;100837.13;4990113;28;20451;-78
2022/10/08 02:43:28;;;;;;;10.60;4.50;;;;;;;4.27;100.00;100836.28;4977074;28;20085;-79
2022/10/08 02:46:09;;;;;;;8.13;5.10;;;;;;;4.24;100.00;100826.66;4972434;28;20053;-79
2022/10/08 02:48:41;;;;;;;7.53;4.87;;;;;;;4.27;100.00;100820.56;4973997;28;20117;-78
2022/10/08 02:51:12;;;;;;;6.27;4.23;;;;;;;4.30;100.00;100826.72;4972528;28;20518;-79
2022/10/08 02:53:39;;;;;;;7.80;4.20;;;;;;;4.34;100.00;100835.47;4988823;28;20112;-79
2022/10/08 02:56:13;;;;;;;7.87;4.70;;;;;;;4.36;100.00;100828.50;4955988;28;20039;-78
2022/10/08 02:58:42;;;;;;;7.40;4.20;;;;;;;4.34;100.00;100819.75;4949217;28;20086;-79
2022/10/08 03:01:14;;;;;;;11.67;4.90;;;;;;;4.36;100.00;100821.50;4992464;28;20845;-79
2022/10/08 03:03:49;;;;;;;6.43;4.20;;;;;;;4.38;100.00;100827.66;4988598;28;20035;-78
2022/10/08 03:06:17;;;;;;;7.73;4.13;;;;;;;4.44;100.00;100821.56;4987078;28;20046;-79
2022/10/08 03:08:47;;;;;;;7.23;4.53;;;;;;;4.37;100.00;100809.31;4986519;28;20431;-79
2022/10/08 03:11:15;;;;;;;9.17;3.87;;;;;;;4.39;100.00;100812.84;4951352;28;20149;-78
2022/10/08 03:13:44;;;;;;;10.43;4.67;;;;;;;4.29;100.00;100816.22;4965702;28;20101;-78
2022/10/08 03:16:13;;;;;;;5.27;4.30;;;;;;;4.37;100.00;100817.16;4984939;28;20038;-78
2022/10/08 03:18:40;;;;;;;6.97;4.03;;;;;;;4.35;100.00;100811.91;4967607;28;20039;-78
2022/10/08 03:21:08;;;;;;;8.07;3.90;;;;;;;4.31;100.00;100815.41;4969198;28;20101;-79
2022/10/08 03:23:34;;;;;;;6.70;4.13;;;;;;;4.31;100.00;100823.25;4970619;28;20050;-78
2022/10/08 03:26:01;;;;;;;7.67;4.23;;;;;;;4.31;100.00;100828.47;4986402;28;20038;-78
2022/10/08 03:28:28;;;;;;;7.53;4.47;;;;;;;4.31;100.00;100819.75;4979594;28;20046;-78
2022/10/08 03:30:54;;;;;;;5.80;4.00;;;;;;;4.38;100.00;100821.56;4978414;28;20133;-79
2022/10/08 03:33:21;;;;;;;5.40;4.17;;;;;;;4.36;100.00;100818.91;4984469;28;20126;-78
2022/10/08 03:35:48;;;;;;;6.17;4.07;;;;;;;4.40;100.00;100828.53;4972005;28;20045;-79
2022/10/08 03:38:15;;;;;;;6.30;4.07;;;;;;;4.42;100.00;100825.94;4970160;28;20034;-78
2022/10/08 03:40:43;;;;;;;6.63;4.30;;;;;;;4.42;100.00;100826.81;4975477;28;20522;-78
2022/10/08 03:43:09;;;;;;;10.10;4.50;;;;;;;4.48;100.00;100823.38;4996094;28;20547;-78
2022/10/08 03:45:36;;;;;;;6.83;3.97;;;;;;;4.44;100.00;100822.44;5058235;23;21593;-80
2022/10/08 03:48:02;;;;;;;6.23;4.40;;;;;;;4.46;100.00;100814.63;4972440;28;20043;-80
2022/10/08 03:50:29;;;;;;;6.83;4.73;;;;;;;4.56;100.00;100821.69;4987033;28;20034;-80
2022/10/08 03:52:56;;;;;;;7.30;3.90;;;;;;;4.53;100.00;100824.25;4993925;28;20046;-80
2022/10/08 03:55:22;;;;;;;6.43;3.80;;;;;;;4.48;100.00;100819.00;4988596;28;20062;-80
2022/10/08 03:57:49;;;;;;;7.30;4.37;;;;;;;4.50;100.00;100821.63;4986882;28;20081;-79
2022/10/08 04:00:16;;;;;;;6.97;4.17;;;;;;;4.50;100.00;100819.88;4992022;28;20042;-80
2022/10/08 04:02:48;;;;;;;8.00;3.90;;;;;;;4.52;100.00;100825.13;4994650;28;20042;-79
2022/10/08 04:05:15;;;;;;;4.87;3.83;;;;;;;4.43;100.00;100815.47;4985475;28;20077;-79
2022/10/08 04:07:41;;;;;;;6.17;3.60;;;;;;;4.50;100.00;100817.25;5010346;28;20093;-80
2022/10/08 04:10:08;;;;;;;7.13;4.30;;;;;;;4.45;100.00;100820.69;5008653;28;20038;-79
2022/10/08 04:12:35;;;;;;;7.23;4.07;;;;;;;4.43;100.00;100817.22;4956420;28;20042;-81
2022/10/08 04:15:01;;;;;;;7.27;5.37;;;;;;;4.37;100.00;100815.44;4959736;28;20042;-82
2022/10/08 04:17:28;;;;;;;7.70;3.77;;;;;;;4.30;100.00;100816.25;4970937;28;20042;-82
2022/10/08 04:19:56;;;;;;;6.73;4.00;;;;;;;4.31;100.00;100807.56;4987009;28;20491;-82
2022/10/08 04:22:22;;;;;;;7.30;4.43;;;;;;;4.31;100.00;100799.69;4970744;28;20066;-82
2022/10/08 04:24:49;;;;;;;6.73;3.63;;;;;;;4.31;100.00;100798.81;4977035;28;20037;-82
2022/10/08 04:27:15;;;;;;;6.87;3.73;;;;;;;4.29;100.00;100811.91;4992129;28;20096;-83
2022/10/08 04:29:42;;;;;;;7.13;3.90;;;;;;;4.30;100.00;100807.53;4992066;28;20470;-83
2022/10/08 04:32:09;;;;;;;8.30;4.70;;;;;;;4.27;100.00;100799.66;4975275;28;20102;-83
2022/10/08 04:34:36;;;;;;;5.57;4.07;;;;;;;4.27;100.00;100797.03;4974586;28;20113;-81
2022/10/08 04:37:02;;;;;;;6.97;4.33;;;;;;;4.33;100.00;100797.09;4973996;28;20042;-83
2022/10/08 04:39:29;;;;;;;8.40;4.30;;;;;;;4.46;100.00;100798.94;4956091;28;20038;-81
2022/10/08 04:41:55;;;;;;;6.73;4.20;;;;;;;4.34;100.00;100797.09;4976225;28;20100;-80
2022/10/08 04:44:22;;;;;;;6.23;4.40;;;;;;;4.25;100.00;100802.25;4997116;28;20045;-80
2022/10/08 04:46:52;;;;;;;14.10;5.43;;;;;;;4.24;100.00;100797.91;4991836;28;20566;-78
2022/10/08 04:49:18;;;;;;;5.87;4.13;;;;;;;4.29;100.00;100796.22;4977726;28;20116;-78
2022/10/08 04:51:45;;;;;;;5.20;4.10;;;;;;;4.21;100.00;100800.50;4988703;28;20035;-78
2022/10/08 04:54:11;;;;;;;6.43;4.63;;;;;;;4.18;100.00;100801.34;5001982;28;20391;-79
2022/10/08 04:56:38;;;;;;;7.77;4.57;;;;;;;4.20;100.00;100797.03;4973221;28;20046;-78
2022/10/08 04:59:05;;;;;;;5.60;3.80;;;;;;;4.17;100.00;100798.72;4976215;28;20107;-79
2022/10/08 05:01:31;;;;;;;5.60;4.00;;;;;;;4.21;100.00;100792.66;4988694;28;20074;-79
2022/10/08 05:03:58;;;;;;;7.80;4.03;;;;;;;4.17;100.00;100794.34;4975525;28;20073;-78
2022/10/08 05:06:28;;;;;;;6.07;3.43;;;;;;;4.36;100.00;100813.66;4990848;28;20038;-79
2022/10/08 05:08:56;;;;;;;5.17;3.80;;;;;;;4.18;100.00;100801.34;5001782;28;20034;-79
2022/10/08 05:11:23;;;;;;;6.53;3.80;;;;;;;4.31;100.00;100807.56;4973583;28;20121;-79
2022/10/08 05:13:52;;;;;;;6.67;4.30;;;;;;;4.27;100.00;100803.16;5006857;28;20522;-78
2022/10/08 05:16:19;;;;;;;8.07;4.50;;;;;;;4.24;100.00;100792.66;4985909;28;20054;-78
2022/10/08 05:18:46;;;;;;;4.40;3.30;;;;;;;4.15;100.00;100795.22;4953774;28;20050;-80
2022/10/08 05:21:15;;;;;;;11.43;5.90;;;;;;;4.21;100.00;100798.75;4970882;28;20055;-79
2022/10/08 05:23:42;;;;;;;9.10;6.27;;;;;;;4.12;100.00;100809.16;4978770;28;20706;-79
2022/10/08 05:26:20;;;;;;;10.93;6.43;;;;;;;4.10;100.00;100809.97;4992723;28;20046;-79
2022/10/08 05:29:09;;;;;;;8.03;4.83;;;;;;;4.08;100.00;100822.19;4975512;28;20049;-81
2022/10/08 05:31:36;;;;;;;6.67;4.50;;;;;;;4.10;100.00;100809.97;4984892;28;20050;-81
2022/10/08 05:34:03;;;;;;;9.13;5.10;;;;;;;4.10;100.00;100809.97;4984666;28;21535;-81
2022/10/08 05:36:32;;;;;;;7.07;4.33;;;;;;;4.14;100.00;100806.53;4971895;28;20081;-82
2022/10/08 05:39:00;;;;;;;8.00;6.13;;;;;;;4.22;100.00;100815.31;4964136;28;20459;-84
2022/10/08 05:41:28;;;;;;;17.90;10.10;;;;;;;4.35;100.00;100804.06;4973451;28;20395;-81
2022/10/08 05:43:56;;;;;;;12.03;6.90;;;;;;;4.29;100.00;100808.38;4969642;28;20097;-82
2022/10/08 05:46:25;;;;;;;10.23;5.73;;;;;;;4.25;100.00;100807.50;4961861;28;20038;-81
2022/10/08 05:48:53;;;;;;;6.37;4.00;;;;;;;4.26;100.00;100813.59;4974565;28;20419;-81
2022/10/08 05:51:19;;;;;;;5.97;4.47;;;;;;;4.27;100.00;100803.16;4969506;28;20042;-81
2022/10/08 05:53:49;;;;;;;6.07;3.57;;;;;;;4.29;100.00;100813.59;4957879;28;20042;-81
2022/10/08 05:56:18;;;;;;;6.63;4.30;;;;;;;4.28;100.00;100802.28;4991706;28;20038;-81
2022/10/08 05:58:45;;;;;;;5.53;3.80;;;;;;;4.30;100.00;100818.00;4971448;28;20097;-82
2022/10/08 06:01:13;;;;;;;6.53;3.60;;;;;;;4.32;100.00;100803.19;4984750;28;20046;-81
2022/10/08 06:03:40;;;;;;;5.27;3.80;;;;;;;4.36;100.00;100811.06;4968451;28;20101;-80
2022/10/08 06:06:09;;;;;;;6.13;4.00;;;;;;;4.42;100.00;100813.72;4955479;28;20042;-81
2022/10/08 06:08:36;;;;;;;6.90;3.77;;;;;;;4.45;100.00;100816.34;4971555;28;20042;-81
2022/10/08 06:11:04;;;;;;;6.97;4.07;;;;;;;4.49;100.00;100815.53;4986629;28;20046;-81
2022/10/08 06:13:31;;;;;;;9.53;4.40;;;;;;;4.56;100.00;100820.81;4991233;28;20038;-81
2022/10/08 06:15:59;;;;;;;6.73;3.63;;;;;;;4.59;100.00;100820.81;4989657;28;20043;-81
2022/10/08 06:18:28;;;;;;;6.80;4.10;;;;;;;4.64;100.00;100822.59;4981926;28;20046;-81
2022/10/08 06:20:55;;;;;;;6.20;3.43;;;;;;;4.69;100.00;100817.38;4989442;28;20607;-82
2022/10/08 06:23:23;;;;;;;6.07;3.60;;;;;;;4.75;100.00;100822.66;4973613;28;20096;-79
2022/10/08 06:25:49;;;;;;;7.90;4.10;;;;;;;4.82;100.00;100821.81;4990357;28;20524;-80
2022/10/08 06:28:16;;;;;;;10.23;4.57;;;;;;;4.88;100.00;100815.75;4992789;28;20034;-79
2022/10/08 06:30:43;;;;;;;7.70;4.10;;;;;;;4.93;100.00;100821.88;4956757;28;20048;-81
2022/10/08 06:33:10;;;;;;;4.70;3.27;;;;;;;4.97;100.00;100823.66;4991568;28;20038;-79
2022/10/08 06:35:37;;;;;;;6.80;4.10;;;;;;;5.03;100.00;100818.44;4988289;28;20168;-82
2022/10/08 06:38:04;;;;;;;8.20;4.47;;;;;;;5.05;100.00;100817.59;5011191;28;20042;-80
2022/10/08 06:40:32;;;;;;;6.00;3.47;;;;;;;5.11;100.00;100818.47;4967730;28;20137;-79
2022/10/08 06:42:59;;;;;;;6.07;3.60;;;;;;;5.15;100.00;100817.63;5002310;28;20403;-81
2022/10/08 06:45:25;;;;;;;11.80;4.43;;;;;;;5.19;100.00;100814.13;4968213;28;20043;-80
2022/10/08 06:47:52;;;;;;;5.87;4.07;;;;;;;5.25;100.00;100817.66;4961163;28;20046;-80
2022/10/08 06:50:18;;;;;;;4.77;3.50;;;;;;;5.30;100.00;100826.44;4992533;28;20462;-79
2022/10/08 06:52:45;;;;;;;5.17;3.83;;;;;;;5.39;100.00;100827.31;4970962;28;20038;-80
2022/10/08 06:55:12;;;;;;;8.27;4.00;;;;;;;5.45;100.00;100830.81;4975077;28;20046;-82
2022/10/08 06:57:39;;;;;;;8.20;4.60;;;;;;;5.55;100.00;100827.38;4995572;28;20042;-82
2022/10/08 07:00:07;;;;;;;8.80;3.80;;;;;;;5.62;100.00;100831.72;4969127;28;20450;-81
2022/10/08 07:02:34;;;;;;;9.63;4.10;;;;;;;5.72;100.00;100832.66;4969405;28;20050;-82
2022/10/08 07:05:01;;;;;;;6.50;4.17;;;;;;;5.76;100.00;100836.16;4966972;28;20051;-83
2022/10/08 07:07:27;;;;;;;8.27;4.10;;;;;;;5.85;100.00;100836.16;4976788;28;20038;-81
2022/10/08 07:09:54;;;;;;;5.60;3.77;;;;;;;5.93;100.00;100844.94;4983642;28;21584;-82
2022/10/08 07:12:21;;;;;;;5.83;4.53;;;;;;;6.06;100.00;100843.22;4996767;28;20415;-83
2022/10/08 07:14:47;;;;;;;7.63;5.03;;;;;;;6.18;100.00;100841.47;4985480;28;20053;-82
2022/10/08 07:17:15;;;;;;;8.57;5.17;;;;;;;6.33;100.00;100837.09;4988973;28;20042;-82
2022/10/08 07:19:42;;;;;;;10.93;5.90;;;;;;;6.74;100.00;100843.19;4975905;28;20559;-83
2022/10/08 07:22:08;;;;;;;11.00;5.43;;;;;;;6.85;100.00;100837.91;4979640;28;20116;-79
2022/10/08 07:24:35;;;;;;;13.40;6.40;;;;;;;7.14;100.00;100834.28;5000006;28;20043;-79
2022/10/08 07:27:02;;;;;;;12.37;6.20;;;;;;;7.36;100.00;100838.59;5000399;28;20041;-78
2022/10/08 07:29:28;;;;;;;10.27;5.63;;;;;;;7.56;100.00;100833.22;4970850;28;20042;-79
2022/10/08 07:31:55;;;;;;;14.93;5.47;;;;;;;7.82;100.00;100844.50;5002789;28;20042;-79
2022/10/08 07:34:22;;;;;;;14.77;6.97;;;;;;;8.09;100.00;100840.78;4982860;28;20045;-81
2022/10/08 07:36:48;;;;;;;13.10;7.00;;;;;;;8.32;100.00;100845.84;4998759;28;20046;-79
2022/10/08 07:39:19;;;;;;;16.60;7.60;;;;;;;8.65;100.00;100846.47;4975564;28;20404;-81
2022/10/08 07:41:47;;;;;;;11.50;5.77;;;;;;;8.77;100.00;100841.09;4990418;28;21051;-79
2022/10/08 07:44:14;;;;;;;9.67;5.97;;;;;;;9.03;100.00;100841.69;5007555;28;20602;-78
2022/10/08 07:46:46;;;;;;;9.63;5.47;;;;;;;9.36;100.00;100849.22;4973730;28;20096;-79
2022/10/08 07:49:14;;;;;;;8.43;5.30;;;;;;;9.44;100.00;100850.88;5006450;28;20039;-79
2022/10/08 07:51:41;;;;;;;9.50;4.70;;;;;;;9.53;100.00;100848.13;4981692;28;20042;-79
2022/10/08 07:54:09;;;;;;;6.17;4.93;;;;;;;9.77;100.00;100846.91;4985082;28;20038;-79
2022/10/08 07:56:36;;;;;;;11.00;5.57;;;;;;;10.00;100.00;100848.31;4951706;28;20054;-80
2022/10/08 07:59:03;;;;;;;10.02;4.78;;;;;;;10.08;100.00;100849.94;5001478;28;20038;-79
2022/10/08 08:01:31;;;;;;;7.85;3.85;;;;;;;10.18;100.00;100844.56;4980471;28;20443;-81
2022/10/08 08:04:01;;;;;;;8.68;4.55;;;;;;;10.50;100.00;100851.97;4982524;28;20076;-83
2022/10/08 08:06:28;;;;;;;8.82;4.20;;;;;;;10.56;100.00;100854.50;4963453;28;20137;-82
2022/10/08 08:08:56;;;;;;;9.52;4.90;;;;;;;10.54;100.00;100849.25;4959137;28;20134;-82
2022/10/08 08:11:23;;;;;;;9.95;4.68;;;;;;;10.56;100.00;100855.38;4981430;28;20097;-84
2022/10/08 08:13:51;;;;;;;7.50;4.25;;;;;;;10.78;100.00;100857.66;4979879;28;20050;-82
2022/10/08 08:16:24;;;;;;;8.82;4.60;;;;;;;10.84;100.00;100861.03;4986143;28;20049;-84
2022/10/08 08:18:54;;;;;;;12.60;4.65;;;;;;;11.03;100.00;100858.06;5012322;28;20499;-83
2022/10/08 08:21:23;;;;;;;6.78;4.00;;;;;;;10.94;100.00;100859.13;5002949;28;20034;-84
2022/10/08 08:23:52;;;;;;;9.52;4.53;;;;;;;11.12;100.00;100858.75;4989314;28;20034;-83
2022/10/08 08:26:25;;;;;;;8.30;4.10;;;;;;;11.34;100.00;100856.53;4984592;28;20038;-83
2022/10/08 08:28:53;;;;;;;8.82;3.83;;;;;;;11.43;100.00;100852.81;4976255;28;20105;-82
2022/10/08 08:31:26;;;;;;;6.35;3.38;;;;;;;11.68;100.00;100843.47;4975847;28;20049;-83
2022/10/08 08:33:55;;;;;;;8.40;3.80;;;;;;;11.81;100.00;100852.03;4991412;28;20038;-83
2022/10/08 08:36:27;;;;;;;6.95;3.35;;;;;;;12.00;100.00;100853.34;4975758;28;20469;-82
2022/10/08 08:38:53;;;;;;;6.35;3.60;;;;;;;12.12;100.00;100849.56;4961434;28;20046;-84
2022/10/08 08:41:39;;;;;;;8.18;3.95;;;;;;;12.38;100.00;100860.41;4957058;28;20187;-82
2022/10/08 08:44:11;;;;;;;6.63;3.67;;;;;;;12.58;100.00;100846.63;4989791;28;20053;-84
2022/10/08 08:46:41;;;;;;;7.20;4.35;;;;;;;12.80;100.00;100854.91;4989719;28;20034;-81
2022/10/08 08:49:16;;;;;;;9.75;4.38;;;;;;;12.94;100.00;100852.75;4969472;28;20411;-81
2022/10/08 08:51:45;;;;;;;7.78;3.78;;;;;;;12.98;100.00;100850.03;4983802;28;20042;-82
2022/10/08 08:54:12;;;;;;;9.20;3.47;;;;;;;12.94;100.00;100862.47;4984009;28;20412;-81
2022/10/08 08:56:39;;;;;;;8.38;4.70;;;;;;;13.02;100.00;100856.97;4979305;28;20042;-82
2022/10/08 08:59:24;;;;;;;9.00;4.13;;;;;;;13.10;100.00;100865.59;4975432;28;20073;-82
2022/10/08 09:01:54;;;;;;;8.40;5.00;;;;;;;13.11;100.00;100872.63;4984285;28;20046;-82
2022/10/08 09:04:25;;;;;;;7.40;4.03;;;;;;;13.07;100.00;100868.34;4973602;28;20039;-83
2022/10/08 09:06:55;;;;;;;8.20;4.47;;;;;;;13.09;100.00;100872.69;4970715;28;20657;-86
2022/10/08 09:09:40;;;;;;;14.07;4.50;;;;;;;12.96;100.00;100873.94;4978194;28;20046;-84
2022/10/08 09:12:15;;;;;;;7.72;3.88;;;;;;;13.00;100.00;100877.38;4962549;28;20045;-83
2022/10/08 09:14:50;;;;;;;7.00;4.05;;;;;;;13.07;100.00;100882.47;4958697;28;20126;-85
2022/10/08 09:17:19;;;;;;;5.93;3.65;;;;;;;13.11;100.00;100873.50;4955663;28;20047;-82
2022/10/08 09:19:47;;;;;;;9.35;3.88;;;;;;;13.02;100.00;100884.34;4972817;28;20042;-83
2022/10/08 09:22:19;;;;;;;9.27;3.67;;;;;;;13.06;100.00;100886.03;4974530;28;20046;-83
2022/10/08 09:24:50;;;;;;;7.32;3.60;;;;;;;12.94;100.00;100887.22;4976240;28;20042;-83
2022/10/08 09:27:18;;;;;;;10.57;3.50;;;;;;;13.03;100.00;100891.44;4978374;28;20053;-84
2022/10/08 09:29:44;;;;;;;11.02;4.47;;;;;;;13.06;100.00;100901.09;4998984;28;20038;-83
2022/10/08 09:32:16;;;;;;;5.95;3.92;;;;;;;13.09;100.00;100891.25;4987840;28;20042;-83
2022/10/08 09:34:43;;;;;;;7.57;3.72;;;;;;;13.14;100.00;100893.78;4979484;28;20034;-84
2022/10/08 09:37:22;;;;;;;5.22;3.38;;;;;;;12.98;100.00;100890.69;4985604;28;20464;-82
2022/10/08 09:40:25;;;;;;;7.47;3.42;;;;;;;12.88;100.00;100898.00;4988451;28;20038;-83
2022/10/08 09:43:11;;;;;;;9.25;4.22;;;;;;;12.98;100.00;100900.41;4988013;28;20455;-82
2022/10/08 09:45:39;;;;;;;7.45;3.80;;;;;;;13.01;100.00;100905.63;4963778;28;20106;-82
2022/10/08 09:48:23;;;;;;;10.95;4.80;;;;;;;12.99;100.00;100902.16;4955543;28;20054;-83
2022/10/08 09:50:58;;;;;;;7.07;3.60;;;;;;;12.95;100.00;100904.03;4989193;28;20112;-84
2022/10/08 09:53:28;;;;;;;8.73;4.28;;;;;;;13.09;100.00;100911.59;4957815;28;20034;-83
2022/10/08 09:56:00;;;;;;;7.22;4.43;;;;;;;13.10;100.00;100908.91;4972720;28;20034;-83
2022/10/08 09:58:30;;;;;;;6.45;4.40;;;;;;;13.23;100.00;100917.44;4971359;28;20050;-83
2022/10/08 10:01:03;;;;;;;10.43;4.97;;;;;;;13.37;100.00;100917.03;4978175;28;20566;-82
2022/10/08 10:03:30;;;;;;;6.63;4.15;;;;;;;13.39;100.00;100907.28;4975381;28;20305;-85
2022/10/08 10:05:58;;;;;;;12.68;7.70;;;;;;;13.52;100.00;100908.66;4974114;28;20166;-83
2022/10/08 10:08:42;;;;;;;7.20;3.60;;;;;;;13.53;100.00;100911.25;4958691;28;20061;-83
2022/10/08 10:11:16;;;;;;;9.82;4.60;;;;;;;13.69;100.00;100913.47;4978699;28;20049;-84
2022/10/08 10:13:44;;;;;;;7.32;3.80;;;;;;;13.63;100.00;100914.53;4973602;28;20089;-82
2022/10/08 10:16:18;;;;;;;7.25;3.42;;;;;;;13.53;100.00;100926.31;4972789;28;20138;-84
2022/10/08 10:18:53;;;;;;;6.03;3.25;;;;;;;13.57;100.00;100924.47;4993061;28;20042;-82
2022/10/08 10:22:00;;;;;;;7.57;3.97;;;;;;;13.56;100.00;100925.38;4994212;28;20042;-83
2022/10/08 10:24:35;;;;;;;7.88;4.30;;;;;;;13.48;100.00;100929.13;4967780;28;20108;-83
2022/10/08 10:27:12;;;;;;;9.93;4.30;;;;;;;13.48;100.00;100930.91;4957429;28;20113;-83
2022/10/08 10:29:46;;;;;;;12.27;4.53;;;;;;;13.33;100.00;100933.97;4979362;28;20060;-84
2022/10/08 10:32:17;;;;;;;9.07;4.78;;;;;;;13.20;100.00;100933.44;4961434;28;20060;-82
2022/10/08 10:34:57;;;;;;;9.38;5.30;;;;;;;13.22;100.00;100936.94;4962439;28;20128;-84
2022/10/08 10:37:32;;;;;;;9.50;3.95;;;;;;;13.14;100.00;100930.94;4976956;28;20073;-83
2022/10/08 10:40:16;;;;;;;6.82;3.88;;;;;;;13.12;100.00;100936.28;4964794;28;20074;-84
2022/10/08 10:42:56;;;;;;;8.20;4.32;;;;;;;13.14;100.00;100939.75;4994558;28;20069;-82
2022/10/08 10:45:25;;;;;;;6.13;4.15;;;;;;;13.13;100.00;100945.09;4993396;28;20061;-85
2022/10/08 10:47:55;;;;;;;9.50;4.10;;;;;;;13.16;100.00;100940.56;4975557;28;20038;-83
2022/10/08 10:50:36;;;;;;;8.82;4.75;;;;;;;13.24;100.00;100943.06;4974844;28;20499;-82
2022/10/08 10:53:15;;;;;;;7.35;4.03;;;;;;;13.41;100.00;100931.97;4983322;28;20042;-82
2022/10/08 10:56:12;;;;;;;6.28;3.75;;;;;;;13.53;100.00;100936.94;4975612;28;20077;-84
2022/10/08 10:59:20;;;;;;;7.68;4.25;;;;;;;13.67;100.00;100939.22;4992492;28;20096;-82
2022/10/08 11:01:55;;;;;;;7.88;3.45;;;;;;;13.71;100.00;100935.56;4921410;28;20106;-83
2022/10/08 11:04:34;;;;;;;9.05;2.92;;;;;;;13.70;100.00;100929.34;4969071;28;20874;-82
2022/10/08 11:07:13;;;;;;;8.35;3.65;;;;;;;13.65;100.00;100936.59;4976412;28;20042;-84
2022/10/08 11:09:45;;;;;;;5.53;3.33;;;;;;;13.70;98.43;100926.69;4976775;28;20070;-84
2022/10/08 11:12:36;;;;;;;5.28;2.75;;;;;;;13.79;97.79;100930.91;4988896;28;20039;-83
2022/10/08 11:15:37;;;;;;;5.43;2.90;;;;;;;13.91;95.80;100929.66;4987867;28;20435;-82
2022/10/08 11:18:42;;;;;;;4.55;2.80;;;;;;;13.88;96.24;100932.41;4992254;28;20046;-82
2022/10/08 11:21:32;;;;;;;6.72;2.85;;;;;;;13.93;96.70;100919.84;4967688;28;20047;-81
2022/10/08 11:24:26;;;;;;;6.40;2.78;;;;;;;13.98;96.18;100921.47;5006677;28;20093;-83
2022/10/08 11:27:02;;;;;;;5.88;3.45;;;;;;;13.97;98.39;100919.72;4986115;28;20041;-81
2022/10/08 11:29:38;;;;;;;7.25;2.80;;;;;;;14.06;98.22;100926.53;4980738;28;20066;-81
2022/10/08 11:32:10;;;;;;;4.20;2.70;;;;;;;14.16;96.57;100924.47;4974898;28;20069;-80
2022/10/08 11:34:38;;;;;;;5.95;3.10;;;;;;;14.23;96.40;100915.41;4976925;28;20105;-81
2022/10/08 11:37:10;;;;;;;4.57;2.75;;;;;;;14.20;93.61;100923.44;4976965;28;20073;-79
2022/10/08 11:39:46;;;;;;;6.88;2.58;;;;;;;14.26;93.84;100929.44;4991621;28;20046;-80
2022/10/08 11:42:29;;;;;;;6.90;2.65;;;;;;;14.35;94.77;100930.94;4993331;28;20092;-81